sensor_id;sensor_type;location;lat;lon;timestamp;P1;durP1;ratioP1;P2;durP2;ratioP2
84244;SDS011;74383;44.552;18.100;2024-01-16T00:01:44;16.00;;;7.38;;
84244;SDS011;74383;44.552;18.100;2024-01-16T00:04:10;13.95;;;7.32;;
84244;SDS011;74383;44.552;18.100;2024-01-16T00:06:39;11.98;;;6.53;;
84244;SDS011;74383;44.552;18.100;2024-01-16T00:09:06;12.73;;;6.72;;
84244;SDS011;74383;44.552;18.100;2024-01-16T00:11:32;11.88;;;6.53;;
84244;SDS011;74383;44.552;18.100;2024-01-16T00:13:57;13.25;;;6.60;;
84244;SDS011;74383;44.552;18.100;2024-01-16T00:16:23;17.77;;;8.63;;
84244;SDS011;74383;44.552;18.100;2024-01-16T00:18:49;57.13;;;23.73;;
84244;SDS011;74383;44.552;18.100;2024-01-16T00:21:14;47.47;;;19.80;;
84244;SDS011;74383;44.552;18.100;2024-01-16T00:23:40;43.58;;;18.42;;
84244;SDS011;74383;44.552;18.100;2024-01-16T00:26:05;24.80;;;10.63;;
84244;SDS011;74383;44.552;18.100;2024-01-16T00:28:31;39.45;;;17.10;;
84244;SDS011;74383;44.552;18.100;2024-01-16T00:30:57;39.58;;;17.65;;
84244;SDS011;74383;44.552;18.100;2024-01-16T00:33:23;34.35;;;17.30;;
84244;SDS011;74383;44.552;18.100;2024-01-16T00:35:49;27.10;;;12.95;;
84244;SDS011;74383;44.552;18.100;2024-01-16T00:38:14;44.67;;;20.10;;
84244;SDS011;74383;44.552;18.100;2024-01-16T00:40:40;35.05;;;17.17;;
84244;SDS011;74383;44.552;18.100;2024-01-16T00:43:06;22.48;;;12.43;;
84244;SDS011;74383;44.552;18.100;2024-01-16T00:45:31;27.00;;;13.73;;
84244;SDS011;74383;44.552;18.100;2024-01-16T00:47:57;24.15;;;13.10;;
84244;SDS011;74383;44.552;18.100;2024-01-16T00:50:22;19.13;;;11.23;;
84244;SDS011;74383;44.552;18.100;2024-01-16T00:52:49;17.10;;;9.75;;
84244;SDS011;74383;44.552;18.100;2024-01-16T00:55:15;17.08;;;9.82;;
84244;SDS011;74383;44.552;18.100;2024-01-16T00:57:40;17.20;;;10.20;;
84244;SDS011;74383;44.552;18.100;2024-01-16T01:00:06;23.23;;;12.48;;
84244;SDS011;74383;44.552;18.100;2024-01-16T01:02:32;26.35;;;15.43;;
84244;SDS011;74383;44.552;18.100;2024-01-16T01:04:58;28.02;;;15.23;;
84244;SDS011;74383;44.552;18.100;2024-01-16T01:07:23;25.65;;;14.70;;
84244;SDS011;74383;44.552;18.100;2024-01-16T01:09:51;25.55;;;15.20;;
84244;SDS011;74383;44.552;18.100;2024-01-16T01:12:16;28.25;;;15.52;;
84244;SDS011;74383;44.552;18.100;2024-01-16T01:14:42;26.83;;;14.45;;
84244;SDS011;74383;44.552;18.100;2024-01-16T01:17:07;28.58;;;14.48;;
84244;SDS011;74383;44.552;18.100;2024-01-16T01:19:33;26.27;;;14.73;;
84244;SDS011;74383;44.552;18.100;2024-01-16T01:21:58;26.90;;;15.45;;
84244;SDS011;74383;44.552;18.100;2024-01-16T01:24:24;26.80;;;14.00;;
84244;SDS011;74383;44.552;18.100;2024-01-16T01:26:50;24.83;;;14.48;;
84244;SDS011;74383;44.552;18.100;2024-01-16T01:29:15;29.30;;;15.73;;
84244;SDS011;74383;44.552;18.100;2024-01-16T01:31:44;34.45;;;18.30;;
84244;SDS011;74383;44.552;18.100;2024-01-16T01:34:12;27.75;;;17.63;;
84244;SDS011;74383;44.552;18.100;2024-01-16T01:36:38;37.53;;;19.77;;
84244;SDS011;74383;44.552;18.100;2024-01-16T01:39:03;37.67;;;19.70;;
84244;SDS011;74383;44.552;18.100;2024-01-16T01:41:29;30.55;;;16.60;;
84244;SDS011;74383;44.552;18.100;2024-01-16T01:43:55;32.35;;;17.88;;
84244;SDS011;74383;44.552;18.100;2024-01-16T01:46:20;32.92;;;18.10;;
84244;SDS011;74383;44.552;18.100;2024-01-16T01:48:47;34.20;;;18.10;;
84244;SDS011;74383;44.552;18.100;2024-01-16T01:51:14;31.30;;;18.38;;
84244;SDS011;74383;44.552;18.100;2024-01-16T01:53:42;30.42;;;17.13;;
84244;SDS011;74383;44.552;18.100;2024-01-16T01:56:10;32.65;;;17.52;;
84244;SDS011;74383;44.552;18.100;2024-01-16T01:58:38;29.42;;;17.45;;
84244;SDS011;74383;44.552;18.100;2024-01-16T02:01:06;30.20;;;16.17;;
84244;SDS011;74383;44.552;18.100;2024-01-16T02:03:35;29.48;;;16.92;;
84244;SDS011;74383;44.552;18.100;2024-01-16T02:06:05;32.05;;;17.00;;
84244;SDS011;74383;44.552;18.100;2024-01-16T02:08:32;32.95;;;18.20;;
84244;SDS011;74383;44.552;18.100;2024-01-16T02:10:58;40.17;;;21.30;;
84244;SDS011;74383;44.552;18.100;2024-01-16T02:13:23;29.27;;;18.23;;
84244;SDS011;74383;44.552;18.100;2024-01-16T02:15:49;32.75;;;19.02;;
84244;SDS011;74383;44.552;18.100;2024-01-16T02:18:16;43.03;;;22.27;;
84244;SDS011;74383;44.552;18.100;2024-01-16T02:20:42;40.50;;;22.80;;
84244;SDS011;74383;44.552;18.100;2024-01-16T02:23:10;35.80;;;19.00;;
84244;SDS011;74383;44.552;18.100;2024-01-16T02:25:38;19.92;;;13.38;;
84244;SDS011;74383;44.552;18.100;2024-01-16T02:28:05;25.08;;;12.73;;
84244;SDS011;74383;44.552;18.100;2024-01-16T02:30:30;22.75;;;13.13;;
84244;SDS011;74383;44.552;18.100;2024-01-16T02:32:56;25.95;;;13.30;;
84244;SDS011;74383;44.552;18.100;2024-01-16T02:35:21;22.65;;;12.52;;
84244;SDS011;74383;44.552;18.100;2024-01-16T02:37:47;21.73;;;11.57;;
84244;SDS011;74383;44.552;18.100;2024-01-16T02:40:13;19.13;;;10.40;;
84244;SDS011;74383;44.552;18.100;2024-01-16T02:42:38;19.02;;;11.02;;
84244;SDS011;74383;44.552;18.100;2024-01-16T02:45:04;21.85;;;13.02;;
84244;SDS011;74383;44.552;18.100;2024-01-16T02:47:31;23.42;;;15.10;;
84244;SDS011;74383;44.552;18.100;2024-01-16T02:49:56;27.65;;;15.52;;
84244;SDS011;74383;44.552;18.100;2024-01-16T02:52:22;21.13;;;12.63;;
84244;SDS011;74383;44.552;18.100;2024-01-16T02:54:48;23.13;;;13.48;;
84244;SDS011;74383;44.552;18.100;2024-01-16T02:57:14;20.65;;;12.13;;
84244;SDS011;74383;44.552;18.100;2024-01-16T02:59:39;26.50;;;12.85;;
84244;SDS011;74383;44.552;18.100;2024-01-16T03:02:05;22.70;;;14.45;;
84244;SDS011;74383;44.552;18.100;2024-01-16T03:04:30;20.40;;;11.27;;
84244;SDS011;74383;44.552;18.100;2024-01-16T03:06:56;23.52;;;12.68;;
84244;SDS011;74383;44.552;18.100;2024-01-16T03:09:22;22.77;;;12.80;;
84244;SDS011;74383;44.552;18.100;2024-01-16T03:11:47;27.85;;;15.45;;
84244;SDS011;74383;44.552;18.100;2024-01-16T03:14:13;55.63;;;26.45;;
84244;SDS011;74383;44.552;18.100;2024-01-16T03:16:39;55.50;;;27.58;;
84244;SDS011;74383;44.552;18.100;2024-01-16T03:19:05;26.75;;;13.15;;
84244;SDS011;74383;44.552;18.100;2024-01-16T03:21:30;20.65;;;11.57;;
84244;SDS011;74383;44.552;18.100;2024-01-16T03:23:56;67.90;;;27.08;;
84244;SDS011;74383;44.552;18.100;2024-01-16T03:26:21;90.40;;;36.45;;
84244;SDS011;74383;44.552;18.100;2024-01-16T03:28:47;85.18;;;36.17;;
84244;SDS011;74383;44.552;18.100;2024-01-16T03:31:13;33.45;;;15.95;;
84244;SDS011;74383;44.552;18.100;2024-01-16T03:33:39;20.23;;;11.30;;
84244;SDS011;74383;44.552;18.100;2024-01-16T03:36:07;26.98;;;13.45;;
84244;SDS011;74383;44.552;18.100;2024-01-16T03:38:35;19.88;;;11.52;;
84244;SDS011;74383;44.552;18.100;2024-01-16T03:41:02;26.27;;;11.93;;
84244;SDS011;74383;44.552;18.100;2024-01-16T03:43:29;45.33;;;21.02;;
84244;SDS011;74383;44.552;18.100;2024-01-16T03:45:57;41.17;;;20.08;;
84244;SDS011;74383;44.552;18.100;2024-01-16T03:48:23;37.85;;;19.23;;
84244;SDS011;74383;44.552;18.100;2024-01-16T03:50:49;21.70;;;12.70;;
84244;SDS011;74383;44.552;18.100;2024-01-16T03:53:14;27.10;;;13.52;;
84244;SDS011;74383;44.552;18.100;2024-01-16T03:55:40;29.25;;;15.02;;
84244;SDS011;74383;44.552;18.100;2024-01-16T03:58:06;32.85;;;15.98;;
84244;SDS011;74383;44.552;18.100;2024-01-16T04:00:31;37.97;;;14.88;;
84244;SDS011;74383;44.552;18.100;2024-01-16T04:02:57;38.05;;;14.85;;
84244;SDS011;74383;44.552;18.100;2024-01-16T04:05:23;28.83;;;13.68;;
84244;SDS011;74383;44.552;18.100;2024-01-16T04:07:48;30.20;;;15.73;;
84244;SDS011;74383;44.552;18.100;2024-01-16T04:10:14;34.60;;;21.73;;
84244;SDS011;74383;44.552;18.100;2024-01-16T04:12:39;32.70;;;18.67;;
84244;SDS011;74383;44.552;18.100;2024-01-16T04:15:05;23.90;;;13.98;;
84244;SDS011;74383;44.552;18.100;2024-01-16T04:17:31;29.20;;;16.30;;
84244;SDS011;74383;44.552;18.100;2024-01-16T04:19:57;31.70;;;16.17;;
84244;SDS011;74383;44.552;18.100;2024-01-16T04:22:23;30.17;;;16.30;;
84244;SDS011;74383;44.552;18.100;2024-01-16T04:24:48;32.13;;;15.60;;
84244;SDS011;74383;44.552;18.100;2024-01-16T04:27:14;30.15;;;14.60;;
84244;SDS011;74383;44.552;18.100;2024-01-16T04:29:40;32.00;;;16.55;;
84244;SDS011;74383;44.552;18.100;2024-01-16T04:32:05;27.92;;;15.05;;
84244;SDS011;74383;44.552;18.100;2024-01-16T04:34:31;31.67;;;16.33;;
84244;SDS011;74383;44.552;18.100;2024-01-16T04:36:57;29.40;;;14.43;;
84244;SDS011;74383;44.552;18.100;2024-01-16T04:39:22;24.73;;;13.23;;
84244;SDS011;74383;44.552;18.100;2024-01-16T04:41:48;26.05;;;14.02;;
84244;SDS011;74383;44.552;18.100;2024-01-16T04:44:14;27.30;;;13.48;;
84244;SDS011;74383;44.552;18.100;2024-01-16T04:46:40;25.05;;;13.32;;
84244;SDS011;74383;44.552;18.100;2024-01-16T04:49:05;27.35;;;13.23;;
84244;SDS011;74383;44.552;18.100;2024-01-16T04:51:31;24.30;;;13.18;;
84244;SDS011;74383;44.552;18.100;2024-01-16T04:53:57;30.27;;;17.27;;
84244;SDS011;74383;44.552;18.100;2024-01-16T04:56:22;44.17;;;26.38;;
84244;SDS011;74383;44.552;18.100;2024-01-16T04:58:48;68.30;;;41.47;;
84244;SDS011;74383;44.552;18.100;2024-01-16T05:01:13;39.58;;;23.40;;
84244;SDS011;74383;44.552;18.100;2024-01-16T05:03:39;38.90;;;20.25;;
84244;SDS011;74383;44.552;18.100;2024-01-16T05:06:05;27.42;;;14.20;;
84244;SDS011;74383;44.552;18.100;2024-01-16T05:08:37;37.08;;;20.13;;
84244;SDS011;74383;44.552;18.100;2024-01-16T05:11:03;31.98;;;15.80;;
84244;SDS011;74383;44.552;18.100;2024-01-16T05:13:29;33.85;;;17.23;;
84244;SDS011;74383;44.552;18.100;2024-01-16T05:15:54;34.78;;;17.88;;
84244;SDS011;74383;44.552;18.100;2024-01-16T05:18:20;28.85;;;16.35;;
84244;SDS011;74383;44.552;18.100;2024-01-16T05:20:46;35.08;;;18.98;;
84244;SDS011;74383;44.552;18.100;2024-01-16T05:23:12;38.22;;;21.15;;
84244;SDS011;74383;44.552;18.100;2024-01-16T05:25:37;44.40;;;23.85;;
84244;SDS011;74383;44.552;18.100;2024-01-16T05:28:03;32.90;;;18.63;;
84244;SDS011;74383;44.552;18.100;2024-01-16T05:30:29;32.08;;;17.35;;
84244;SDS011;74383;44.552;18.100;2024-01-16T05:32:54;37.53;;;20.67;;
84244;SDS011;74383;44.552;18.100;2024-01-16T05:35:20;40.45;;;21.38;;
84244;SDS011;74383;44.552;18.100;2024-01-16T05:37:46;31.48;;;16.20;;
84244;SDS011;74383;44.552;18.100;2024-01-16T05:40:12;35.25;;;19.92;;
84244;SDS011;74383;44.552;18.100;2024-01-16T05:42:38;38.10;;;20.45;;
84244;SDS011;74383;44.552;18.100;2024-01-16T05:45:04;43.85;;;24.73;;
84244;SDS011;74383;44.552;18.100;2024-01-16T05:47:30;48.35;;;26.83;;
84244;SDS011;74383;44.552;18.100;2024-01-16T05:49:55;47.28;;;26.55;;
84244;SDS011;74383;44.552;18.100;2024-01-16T05:52:22;58.58;;;32.33;;
84244;SDS011;74383;44.552;18.100;2024-01-16T05:54:48;69.00;;;35.05;;
84244;SDS011;74383;44.552;18.100;2024-01-16T05:57:13;57.35;;;31.38;;
84244;SDS011;74383;44.552;18.100;2024-01-16T05:59:39;58.97;;;31.65;;
84244;SDS011;74383;44.552;18.100;2024-01-16T06:02:04;54.80;;;29.58;;
84244;SDS011;74383;44.552;18.100;2024-01-16T06:04:30;54.67;;;29.75;;
84244;SDS011;74383;44.552;18.100;2024-01-16T06:06:56;56.33;;;26.90;;
84244;SDS011;74383;44.552;18.100;2024-01-16T06:09:21;39.17;;;21.08;;
84244;SDS011;74383;44.552;18.100;2024-01-16T06:11:47;41.05;;;20.13;;
84244;SDS011;74383;44.552;18.100;2024-01-16T06:14:13;42.70;;;21.48;;
84244;SDS011;74383;44.552;18.100;2024-01-16T06:16:39;40.10;;;20.15;;
84244;SDS011;74383;44.552;18.100;2024-01-16T06:19:04;39.90;;;20.02;;
84244;SDS011;74383;44.552;18.100;2024-01-16T06:21:30;41.95;;;21.92;;
84244;SDS011;74383;44.552;18.100;2024-01-16T06:23:56;39.90;;;20.92;;
84244;SDS011;74383;44.552;18.100;2024-01-16T06:26:22;40.67;;;23.08;;
84244;SDS011;74383;44.552;18.100;2024-01-16T06:28:48;81.25;;;39.13;;
84244;SDS011;74383;44.552;18.100;2024-01-16T06:31:13;108.78;;;47.40;;
84244;SDS011;74383;44.552;18.100;2024-01-16T06:33:39;106.05;;;46.72;;
84244;SDS011;74383;44.552;18.100;2024-01-16T06:36:05;76.70;;;35.28;;
84244;SDS011;74383;44.552;18.100;2024-01-16T06:38:31;64.30;;;32.05;;
84244;SDS011;74383;44.552;18.100;2024-01-16T06:40:57;60.40;;;30.80;;
84244;SDS011;74383;44.552;18.100;2024-01-16T06:43:23;51.25;;;26.92;;
84244;SDS011;74383;44.552;18.100;2024-01-16T06:45:49;35.90;;;20.10;;
84244;SDS011;74383;44.552;18.100;2024-01-16T06:48:15;33.50;;;18.58;;
84244;SDS011;74383;44.552;18.100;2024-01-16T06:50:41;35.30;;;19.15;;
84244;SDS011;74383;44.552;18.100;2024-01-16T06:53:07;33.55;;;18.92;;
84244;SDS011;74383;44.552;18.100;2024-01-16T06:55:32;39.13;;;21.17;;
84244;SDS011;74383;44.552;18.100;2024-01-16T06:57:58;43.55;;;23.10;;
84244;SDS011;74383;44.552;18.100;2024-01-16T07:00:24;42.38;;;22.27;;
84244;SDS011;74383;44.552;18.100;2024-01-16T07:02:52;34.42;;;19.90;;
84244;SDS011;74383;44.552;18.100;2024-01-16T07:05:19;33.03;;;19.90;;
84244;SDS011;74383;44.552;18.100;2024-01-16T07:07:46;49.38;;;27.33;;
84244;SDS011;74383;44.552;18.100;2024-01-16T07:10:15;62.75;;;32.90;;
84244;SDS011;74383;44.552;18.100;2024-01-16T07:12:46;66.55;;;35.50;;
84244;SDS011;74383;44.552;18.100;2024-01-16T07:15:12;88.75;;;39.45;;
84244;SDS011;74383;44.552;18.100;2024-01-16T07:17:39;82.95;;;38.28;;
84244;SDS011;74383;44.552;18.100;2024-01-16T07:20:05;84.75;;;39.67;;
84244;SDS011;74383;44.552;18.100;2024-01-16T07:22:31;85.15;;;42.00;;
84244;SDS011;74383;44.552;18.100;2024-01-16T07:24:56;73.90;;;37.78;;
84244;SDS011;74383;44.552;18.100;2024-01-16T07:27:22;54.25;;;28.73;;
84244;SDS011;74383;44.552;18.100;2024-01-16T07:29:47;46.20;;;24.70;;
84244;SDS011;74383;44.552;18.100;2024-01-16T07:32:13;53.53;;;30.30;;
84244;SDS011;74383;44.552;18.100;2024-01-16T07:34:39;59.17;;;34.65;;
84244;SDS011;74383;44.552;18.100;2024-01-16T07:37:04;71.50;;;38.85;;
84244;SDS011;74383;44.552;18.100;2024-01-16T07:39:30;77.20;;;41.70;;
84244;SDS011;74383;44.552;18.100;2024-01-16T07:41:56;77.45;;;43.58;;
84244;SDS011;74383;44.552;18.100;2024-01-16T07:44:21;74.20;;;41.75;;
84244;SDS011;74383;44.552;18.100;2024-01-16T07:46:47;67.15;;;38.45;;
84244;SDS011;74383;44.552;18.100;2024-01-16T07:49:12;66.78;;;37.85;;
84244;SDS011;74383;44.552;18.100;2024-01-16T07:51:38;90.90;;;46.90;;
84244;SDS011;74383;44.552;18.100;2024-01-16T07:54:05;121.95;;;59.28;;
84244;SDS011;74383;44.552;18.100;2024-01-16T07:56:35;174.25;;;84.10;;
84244;SDS011;74383;44.552;18.100;2024-01-16T07:59:01;137.13;;;68.45;;
84244;SDS011;74383;44.552;18.100;2024-01-16T08:01:28;111.85;;;59.25;;
84244;SDS011;74383;44.552;18.100;2024-01-16T08:03:54;79.03;;;43.65;;
84244;SDS011;74383;44.552;18.100;2024-01-16T08:06:20;84.60;;;45.13;;
84244;SDS011;74383;44.552;18.100;2024-01-16T08:08:47;71.13;;;37.17;;
84244;SDS011;74383;44.552;18.100;2024-01-16T08:11:14;73.72;;;39.38;;
84244;SDS011;74383;44.552;18.100;2024-01-16T08:13:39;77.90;;;44.15;;
84244;SDS011;74383;44.552;18.100;2024-01-16T08:16:05;84.22;;;43.80;;
84244;SDS011;74383;44.552;18.100;2024-01-16T08:18:31;77.88;;;42.13;;
84244;SDS011;74383;44.552;18.100;2024-01-16T08:20:57;69.95;;;37.47;;
84244;SDS011;74383;44.552;18.100;2024-01-16T08:23:23;73.85;;;38.08;;
84244;SDS011;74383;44.552;18.100;2024-01-16T08:25:48;73.00;;;37.65;;
84244;SDS011;74383;44.552;18.100;2024-01-16T08:28:16;95.07;;;47.80;;
84244;SDS011;74383;44.552;18.100;2024-01-16T08:30:42;102.07;;;51.20;;
84244;SDS011;74383;44.552;18.100;2024-01-16T08:33:09;82.57;;;44.42;;
84244;SDS011;74383;44.552;18.100;2024-01-16T08:35:35;107.15;;;56.03;;
84244;SDS011;74383;44.552;18.100;2024-01-16T08:38:01;123.78;;;62.38;;
84244;SDS011;74383;44.552;18.100;2024-01-16T08:40:26;97.13;;;53.40;;
84244;SDS011;74383;44.552;18.100;2024-01-16T08:42:52;80.32;;;44.20;;
84244;SDS011;74383;44.552;18.100;2024-01-16T08:45:23;68.35;;;37.65;;
84244;SDS011;74383;44.552;18.100;2024-01-16T08:47:49;68.40;;;37.90;;
84244;SDS011;74383;44.552;18.100;2024-01-16T08:50:15;72.05;;;38.50;;
84244;SDS011;74383;44.552;18.100;2024-01-16T08:52:41;62.22;;;35.20;;
84244;SDS011;74383;44.552;18.100;2024-01-16T08:55:07;65.38;;;35.17;;
84244;SDS011;74383;44.552;18.100;2024-01-16T08:57:39;72.57;;;40.80;;
84244;SDS011;74383;44.552;18.100;2024-01-16T09:00:05;70.63;;;39.08;;
84244;SDS011;74383;44.552;18.100;2024-01-16T09:02:31;65.88;;;35.33;;
84244;SDS011;74383;44.552;18.100;2024-01-16T09:04:57;62.95;;;32.60;;
84244;SDS011;74383;44.552;18.100;2024-01-16T09:07:26;60.60;;;32.50;;
84244;SDS011;74383;44.552;18.100;2024-01-16T09:09:52;52.70;;;29.63;;
84244;SDS011;74383;44.552;18.100;2024-01-16T09:12:19;37.33;;;21.40;;
84244;SDS011;74383;44.552;18.100;2024-01-16T09:14:44;29.77;;;18.73;;
84244;SDS011;74383;44.552;18.100;2024-01-16T09:17:10;34.88;;;20.75;;
84244;SDS011;74383;44.552;18.100;2024-01-16T09:19:36;30.45;;;17.30;;
84244;SDS011;74383;44.552;18.100;2024-01-16T09:22:02;33.83;;;18.83;;
84244;SDS011;74383;44.552;18.100;2024-01-16T09:24:29;44.45;;;25.70;;
84244;SDS011;74383;44.552;18.100;2024-01-16T09:26:55;50.97;;;29.55;;
84244;SDS011;74383;44.552;18.100;2024-01-16T09:29:20;45.28;;;27.60;;
84244;SDS011;74383;44.552;18.100;2024-01-16T09:31:48;55.55;;;34.70;;
84244;SDS011;74383;44.552;18.100;2024-01-16T09:34:13;52.17;;;28.90;;
84244;SDS011;74383;44.552;18.100;2024-01-16T09:36:39;52.45;;;30.48;;
84244;SDS011;74383;44.552;18.100;2024-01-16T09:39:05;54.25;;;32.95;;
84244;SDS011;74383;44.552;18.100;2024-01-16T09:44:04;52.15;;;29.92;;
84244;SDS011;74383;44.552;18.100;2024-01-16T09:46:31;42.22;;;26.77;;
84244;SDS011;74383;44.552;18.100;2024-01-16T09:48:56;38.28;;;23.20;;
84244;SDS011;74383;44.552;18.100;2024-01-16T09:51:25;35.90;;;22.63;;
84244;SDS011;74383;44.552;18.100;2024-01-16T09:53:51;54.53;;;29.13;;
84244;SDS011;74383;44.552;18.100;2024-01-16T09:56:17;41.63;;;24.10;;
84244;SDS011;74383;44.552;18.100;2024-01-16T09:58:54;36.15;;;21.30;;
84244;SDS011;74383;44.552;18.100;2024-01-16T10:01:22;40.47;;;24.67;;
84244;SDS011;74383;44.552;18.100;2024-01-16T10:03:51;34.83;;;21.08;;
84244;SDS011;74383;44.552;18.100;2024-01-16T10:06:17;31.38;;;18.45;;
84244;SDS011;74383;44.552;18.100;2024-01-16T10:08:45;30.95;;;18.02;;
84244;SDS011;74383;44.552;18.100;2024-01-16T10:11:11;38.38;;;21.73;;
84244;SDS011;74383;44.552;18.100;2024-01-16T10:13:37;38.85;;;20.98;;
84244;SDS011;74383;44.552;18.100;2024-01-16T10:16:03;33.47;;;19.83;;
84244;SDS011;74383;44.552;18.100;2024-01-16T10:18:29;25.40;;;14.50;;
84244;SDS011;74383;44.552;18.100;2024-01-16T10:20:55;33.38;;;19.33;;
84244;SDS011;74383;44.552;18.100;2024-01-16T10:23:29;32.30;;;19.30;;
84244;SDS011;74383;44.552;18.100;2024-01-16T10:26:05;30.42;;;19.17;;
84244;SDS011;74383;44.552;18.100;2024-01-16T10:28:35;33.22;;;19.63;;
84244;SDS011;74383;44.552;18.100;2024-01-16T10:31:05;32.92;;;19.95;;
84244;SDS011;74383;44.552;18.100;2024-01-16T10:33:35;32.97;;;20.45;;
84244;SDS011;74383;44.552;18.100;2024-01-16T10:36:07;30.63;;;19.65;;
84244;SDS011;74383;44.552;18.100;2024-01-16T10:38:37;30.60;;;18.45;;
84244;SDS011;74383;44.552;18.100;2024-01-16T10:41:08;26.70;;;17.70;;
84244;SDS011;74383;44.552;18.100;2024-01-16T10:43:35;27.05;;;16.50;;
84244;SDS011;74383;44.552;18.100;2024-01-16T10:46:14;23.85;;;15.90;;
84244;SDS011;74383;44.552;18.100;2024-01-16T10:48:45;25.33;;;16.10;;
84244;SDS011;74383;44.552;18.100;2024-01-16T10:51:24;29.60;;;16.15;;
84244;SDS011;74383;44.552;18.100;2024-01-16T10:53:51;197.68;;;56.90;;
84244;SDS011;74383;44.552;18.100;2024-01-16T10:56:23;12.35;;;5.93;;
84244;SDS011;74383;44.552;18.100;2024-01-16T10:58:54;5.28;;;3.42;;
84244;SDS011;74383;44.552;18.100;2024-01-16T11:01:31;11.05;;;7.90;;
84244;SDS011;74383;44.552;18.100;2024-01-16T11:03:58;7.07;;;4.38;;
84244;SDS011;74383;44.552;18.100;2024-01-16T11:06:26;10.52;;;5.32;;
84244;SDS011;74383;44.552;18.100;2024-01-16T11:08:52;6.55;;;4.07;;
84244;SDS011;74383;44.552;18.100;2024-01-16T11:11:20;20.75;;;6.78;;
84244;SDS011;74383;44.552;18.100;2024-01-16T11:13:47;15.07;;;5.32;;
84244;SDS011;74383;44.552;18.100;2024-01-16T11:16:14;8.40;;;4.75;;
84244;SDS011;74383;44.552;18.100;2024-01-16T11:18:39;17.10;;;7.88;;
84244;SDS011;74383;44.552;18.100;2024-01-16T11:21:12;11.00;;;5.60;;
84244;SDS011;74383;44.552;18.100;2024-01-16T11:23:39;9.80;;;5.60;;
84244;SDS011;74383;44.552;18.100;2024-01-16T11:29:33;9.20;;;4.60;;
84244;SDS011;74383;44.552;18.100;2024-01-16T11:31:53;9.85;;;4.70;;
84244;SDS011;74383;44.552;18.100;2024-01-16T11:35:19;14.40;;;7.55;;
84244;SDS011;74383;44.552;18.100;2024-01-16T11:37:23;5.97;;;4.15;;
84244;SDS011;74383;44.552;18.100;2024-01-16T11:42:42;6.68;;;4.30;;
84244;SDS011;74383;44.552;18.100;2024-01-16T11:48:08;6.85;;;4.93;;
84244;SDS011;74383;44.552;18.100;2024-01-16T11:50:34;9.93;;;5.35;;
84244;SDS011;74383;44.552;18.100;2024-01-16T11:53:00;12.18;;;5.53;;
84244;SDS011;74383;44.552;18.100;2024-01-16T11:55:26;15.25;;;7.05;;
84244;SDS011;74383;44.552;18.100;2024-01-16T12:00:36;9.73;;;5.53;;
84244;SDS011;74383;44.552;18.100;2024-01-16T12:03:06;26.35;;;14.88;;
84244;SDS011;74383;44.552;18.100;2024-01-16T12:05:33;15.45;;;8.40;;
84244;SDS011;74383;44.552;18.100;2024-01-16T12:07:59;14.52;;;9.40;;
84244;SDS011;74383;44.552;18.100;2024-01-16T12:10:28;10.45;;;6.63;;
84244;SDS011;74383;44.552;18.100;2024-01-16T12:13:00;9.70;;;4.53;;
84244;SDS011;74383;44.552;18.100;2024-01-16T12:15:27;7.00;;;4.35;;
84244;SDS011;74383;44.552;18.100;2024-01-16T12:20:26;6.13;;;3.58;;
84244;SDS011;74383;44.552;18.100;2024-01-16T12:23:06;6.43;;;4.13;;
84244;SDS011;74383;44.552;18.100;2024-01-16T12:25:33;11.00;;;6.22;;
84244;SDS011;74383;44.552;18.100;2024-01-16T12:28:00;7.78;;;4.50;;
84244;SDS011;74383;44.552;18.100;2024-01-16T12:30:30;5.85;;;3.60;;
84244;SDS011;74383;44.552;18.100;2024-01-16T12:33:06;7.57;;;4.65;;
84244;SDS011;74383;44.552;18.100;2024-01-16T12:35:38;4.90;;;3.17;;
84244;SDS011;74383;44.552;18.100;2024-01-16T12:38:11;4.13;;;3.33;;
84244;SDS011;74383;44.552;18.100;2024-01-16T12:40:47;5.32;;;3.40;;
84244;SDS011;74383;44.552;18.100;2024-01-16T12:43:18;4.38;;;2.33;;
84244;SDS011;74383;44.552;18.100;2024-01-16T12:45:44;3.92;;;2.75;;
84244;SDS011;74383;44.552;18.100;2024-01-16T12:48:11;5.32;;;3.42;;
84244;SDS011;74383;44.552;18.100;2024-01-16T12:50:37;4.20;;;2.80;;
84244;SDS011;74383;44.552;18.100;2024-01-16T12:53:04;4.68;;;3.10;;
84244;SDS011;74383;44.552;18.100;2024-01-16T12:55:37;3.28;;;2.60;;
84244;SDS011;74383;44.552;18.100;2024-01-16T12:58:11;3.47;;;1.90;;
84244;SDS011;74383;44.552;18.100;2024-01-16T13:00:44;2.42;;;1.80;;
84244;SDS011;74383;44.552;18.100;2024-01-16T13:03:14;2.08;;;1.88;;
84244;SDS011;74383;44.552;18.100;2024-01-16T13:05:42;2.42;;;2.03;;
84244;SDS011;74383;44.552;18.100;2024-01-16T13:08:07;2.97;;;2.25;;
84244;SDS011;74383;44.552;18.100;2024-01-16T13:10:34;4.10;;;2.70;;
84244;SDS011;74383;44.552;18.100;2024-01-16T13:13:13;2.15;;;1.90;;
84244;SDS011;74383;44.552;18.100;2024-01-16T13:15:43;3.00;;;2.00;;
84244;SDS011;74383;44.552;18.100;2024-01-16T13:18:19;1.77;;;1.67;;
84244;SDS011;74383;44.552;18.100;2024-01-16T13:20:47;2.05;;;1.70;;
84244;SDS011;74383;44.552;18.100;2024-01-16T13:23:14;2.58;;;2.13;;
84244;SDS011;74383;44.552;18.100;2024-01-16T13:25:41;3.42;;;1.80;;
84244;SDS011;74383;44.552;18.100;2024-01-16T13:28:08;3.10;;;2.30;;
84244;SDS011;74383;44.552;18.100;2024-01-16T13:30:34;3.00;;;2.20;;
84244;SDS011;74383;44.552;18.100;2024-01-16T13:32:59;3.10;;;1.92;;
84244;SDS011;74383;44.552;18.100;2024-01-16T13:35:25;2.45;;;2.15;;
84244;SDS011;74383;44.552;18.100;2024-01-16T13:37:51;4.95;;;3.67;;
84244;SDS011;74383;44.552;18.100;2024-01-16T13:40:16;3.70;;;2.40;;
84244;SDS011;74383;44.552;18.100;2024-01-16T13:42:44;3.17;;;2.00;;
84244;SDS011;74383;44.552;18.100;2024-01-16T13:45:10;2.65;;;2.35;;
84244;SDS011;74383;44.552;18.100;2024-01-16T13:47:38;3.35;;;2.53;;
84244;SDS011;74383;44.552;18.100;2024-01-16T13:50:06;2.42;;;2.15;;
84244;SDS011;74383;44.552;18.100;2024-01-16T13:52:35;3.83;;;2.08;;
84244;SDS011;74383;44.552;18.100;2024-01-16T13:55:01;3.15;;;2.47;;
84244;SDS011;74383;44.552;18.100;2024-01-16T13:57:33;2.80;;;2.22;;
84244;SDS011;74383;44.552;18.100;2024-01-16T14:00:07;4.03;;;2.70;;
84244;SDS011;74383;44.552;18.100;2024-01-16T14:05:19;4.70;;;4.03;;
84244;SDS011;74383;44.552;18.100;2024-01-16T14:07:45;3.22;;;2.67;;
84244;SDS011;74383;44.552;18.100;2024-01-16T14:10:12;4.30;;;3.30;;
84244;SDS011;74383;44.552;18.100;2024-01-16T14:12:39;4.82;;;3.47;;
84244;SDS011;74383;44.552;18.100;2024-01-16T14:15:08;5.75;;;4.03;;
84244;SDS011;74383;44.552;18.100;2024-01-16T14:17:45;5.85;;;3.33;;
84244;SDS011;74383;44.552;18.100;2024-01-16T14:20:13;5.07;;;3.90;;
84244;SDS011;74383;44.552;18.100;2024-01-16T14:22:39;8.00;;;4.63;;
84244;SDS011;74383;44.552;18.100;2024-01-16T14:25:06;7.30;;;4.38;;
84244;SDS011;74383;44.552;18.100;2024-01-16T14:27:42;8.05;;;5.00;;
84244;SDS011;74383;44.552;18.100;2024-01-16T14:30:13;7.53;;;4.97;;
84244;SDS011;74383;44.552;18.100;2024-01-16T14:32:40;11.15;;;6.32;;